sensor_id;sensor_type;location;lat;lon;timestamp;P1;durP1;ratioP1;P2;durP2;ratioP2
42346;SDS011;75728;51.856;6.314;2024-03-23T00:55:11;3.55;;;0.73;;
42346;SDS011;75728;51.856;6.314;2024-03-23T00:57:37;1.55;;;0.60;;
42346;SDS011;75728;51.856;6.314;2024-03-23T01:00:03;2.25;;;0.50;;
42346;SDS011;75728;51.856;6.314;2024-03-23T01:02:31;0.70;;;0.32;;
42346;SDS011;75728;51.856;6.314;2024-03-23T01:04:57;1.13;;;0.30;;
42346;SDS011;75728;51.856;6.314;2024-03-23T01:07:22;1.58;;;0.50;;
42346;SDS011;75728;51.856;6.314;2024-03-23T01:09:48;1.25;;;0.50;;
42346;SDS011;75728;51.856;6.314;2024-03-23T01:12:14;1.42;;;0.55;;
42346;SDS011;75728;51.856;6.314;2024-03-23T01:14:39;1.95;;;0.40;;
42346;SDS011;75728;51.856;6.314;2024-03-23T01:17:05;1.63;;;0.50;;
42346;SDS011;75728;51.856;6.314;2024-03-23T01:19:30;2.30;;;0.65;;
42346;SDS011;75728;51.856;6.314;2024-03-23T01:21:56;1.23;;;0.45;;
42346;SDS011;75728;51.856;6.314;2024-03-23T01:24:21;1.60;;;0.60;;
42346;SDS011;75728;51.856;6.314;2024-03-23T01:26:47;1.67;;;0.45;;
42346;SDS011;75728;51.856;6.314;2024-03-23T01:29:13;1.67;;;0.65;;
42346;SDS011;75728;51.856;6.314;2024-03-23T01:31:38;1.40;;;0.50;;
42346;SDS011;75728;51.856;6.314;2024-03-23T01:34:04;0.73;;;0.30;;
42346;SDS011;75728;51.856;6.314;2024-03-23T01:36:29;1.88;;;0.70;;
42346;SDS011;75728;51.856;6.314;2024-03-23T01:38:55;3.28;;;0.90;;
42346;SDS011;75728;51.856;6.314;2024-03-23T01:41:20;2.13;;;0.60;;
42346;SDS011;75728;51.856;6.314;2024-03-23T01:43:46;1.63;;;0.40;;
42346;SDS011;75728;51.856;6.314;2024-03-23T01:46:12;0.93;;;0.50;;
42346;SDS011;75728;51.856;6.314;2024-03-23T01:48:38;1.33;;;0.43;;
42346;SDS011;75728;51.856;6.314;2024-03-23T01:51:04;1.10;;;0.55;;
42346;SDS011;75728;51.856;6.314;2024-03-23T01:53:30;1.90;;;0.63;;
42346;SDS011;75728;51.856;6.314;2024-03-23T01:55:56;1.40;;;0.57;;
42346;SDS011;75728;51.856;6.314;2024-03-23T01:58:22;1.52;;;0.50;;
42346;SDS011;75728;51.856;6.314;2024-03-23T02:00:47;1.33;;;0.40;;
42346;SDS011;75728;51.856;6.314;2024-03-23T02:03:26;0.70;;;0.40;;
42346;SDS011;75728;51.856;6.314;2024-03-23T02:05:52;2.78;;;0.85;;
42346;SDS011;75728;51.856;6.314;2024-03-23T02:08:20;1.70;;;0.60;;
42346;SDS011;75728;51.856;6.314;2024-03-23T02:10:47;2.42;;;0.50;;
42346;SDS011;75728;51.856;6.314;2024-03-23T02:13:14;2.03;;;0.60;;
42346;SDS011;75728;51.856;6.314;2024-03-23T02:15:41;1.60;;;0.68;;
42346;SDS011;75728;51.856;6.314;2024-03-23T02:18:09;1.52;;;0.60;;
42346;SDS011;75728;51.856;6.314;2024-03-23T02:20:35;0.63;;;0.30;;
42346;SDS011;75728;51.856;6.314;2024-03-23T02:23:01;1.33;;;0.40;;
42346;SDS011;75728;51.856;6.314;2024-03-23T02:25:28;1.58;;;0.50;;
42346;SDS011;75728;51.856;6.314;2024-03-23T02:27:53;1.15;;;0.40;;
42346;SDS011;75728;51.856;6.314;2024-03-23T02:30:19;0.70;;;0.40;;
42346;SDS011;75728;51.856;6.314;2024-03-23T02:32:45;2.40;;;0.90;;
42346;SDS011;75728;51.856;6.314;2024-03-23T02:35:11;1.20;;;0.50;;
42346;SDS011;75728;51.856;6.314;2024-03-23T02:37:37;2.00;;;0.60;;
42346;SDS011;75728;51.856;6.314;2024-03-23T02:40:02;1.08;;;0.40;;
42346;SDS011;75728;51.856;6.314;2024-03-23T02:42:28;1.77;;;0.60;;
42346;SDS011;75728;51.856;6.314;2024-03-23T02:44:54;0.88;;;0.40;;
42346;SDS011;75728;51.856;6.314;2024-03-23T02:47:20;1.20;;;0.55;;
42346;SDS011;75728;51.856;6.314;2024-03-23T02:49:45;2.83;;;0.50;;
42346;SDS011;75728;51.856;6.314;2024-03-23T02:52:11;3.80;;;0.55;;
42346;SDS011;75728;51.856;6.314;2024-03-23T02:54:36;1.27;;;0.40;;
42346;SDS011;75728;51.856;6.314;2024-03-23T02:57:02;2.30;;;0.90;;
42346;SDS011;75728;51.856;6.314;2024-03-23T02:59:28;1.02;;;0.50;;
42346;SDS011;75728;51.856;6.314;2024-03-23T03:01:53;1.80;;;0.35;;
42346;SDS011;75728;51.856;6.314;2024-03-23T03:04:19;1.35;;;0.45;;
42346;SDS011;75728;51.856;6.314;2024-03-23T03:06:46;2.92;;;0.50;;
42346;SDS011;75728;51.856;6.314;2024-03-23T03:09:12;1.70;;;0.50;;
42346;SDS011;75728;51.856;6.314;2024-03-23T03:11:38;2.17;;;0.60;;
42346;SDS011;75728;51.856;6.314;2024-03-23T03:14:03;0.90;;;0.40;;
42346;SDS011;75728;51.856;6.314;2024-03-23T03:16:32;0.75;;;0.30;;
42346;SDS011;75728;51.856;6.314;2024-03-23T03:18:57;2.63;;;0.57;;
42346;SDS011;75728;51.856;6.314;2024-03-23T03:21:23;1.48;;;0.47;;
42346;SDS011;75728;51.856;6.314;2024-03-23T03:23:49;1.85;;;0.63;;
42346;SDS011;75728;51.856;6.314;2024-03-23T03:26:16;1.15;;;0.50;;
42346;SDS011;75728;51.856;6.314;2024-03-23T03:28:42;0.50;;;0.30;;
42346;SDS011;75728;51.856;6.314;2024-03-23T03:31:10;1.48;;;0.47;;
42346;SDS011;75728;51.856;6.314;2024-03-23T03:33:36;1.13;;;0.60;;
42346;SDS011;75728;51.856;6.314;2024-03-23T03:36:01;2.35;;;0.70;;
42346;SDS011;75728;51.856;6.314;2024-03-23T03:38:27;2.00;;;0.60;;
42346;SDS011;75728;51.856;6.314;2024-03-23T03:40:53;1.25;;;0.40;;
42346;SDS011;75728;51.856;6.314;2024-03-23T03:43:18;0.95;;;0.47;;
42346;SDS011;75728;51.856;6.314;2024-03-23T03:45:51;1.45;;;0.60;;
42346;SDS011;75728;51.856;6.314;2024-03-23T03:48:20;0.68;;;0.38;;
42346;SDS011;75728;51.856;6.314;2024-03-23T03:50:45;1.58;;;0.50;;
42346;SDS011;75728;51.856;6.314;2024-03-23T03:53:11;1.90;;;0.57;;
42346;SDS011;75728;51.856;6.314;2024-03-23T03:55:37;2.15;;;0.70;;
42346;SDS011;75728;51.856;6.314;2024-03-23T03:58:02;1.02;;;0.47;;
42346;SDS011;75728;51.856;6.314;2024-03-23T04:00:29;1.70;;;0.50;;
42346;SDS011;75728;51.856;6.314;2024-03-23T04:02:55;2.40;;;0.50;;
42346;SDS011;75728;51.856;6.314;2024-03-23T04:05:21;1.10;;;0.50;;
42346;SDS011;75728;51.856;6.314;2024-03-23T04:07:47;1.42;;;0.50;;
42346;SDS011;75728;51.856;6.314;2024-03-23T04:10:13;1.45;;;0.60;;
42346;SDS011;75728;51.856;6.314;2024-03-23T04:12:40;1.42;;;0.55;;
42346;SDS011;75728;51.856;6.314;2024-03-23T04:15:09;1.13;;;0.43;;
42346;SDS011;75728;51.856;6.314;2024-03-23T04:17:35;0.95;;;0.30;;
42346;SDS011;75728;51.856;6.314;2024-03-23T04:20:01;1.10;;;0.50;;
42346;SDS011;75728;51.856;6.314;2024-03-23T04:22:29;1.15;;;0.40;;
42346;SDS011;75728;51.856;6.314;2024-03-23T04:24:55;1.20;;;0.40;;
42346;SDS011;75728;51.856;6.314;2024-03-23T04:27:21;1.17;;;0.50;;
42346;SDS011;75728;51.856;6.314;2024-03-23T04:29:51;1.25;;;0.50;;
42346;SDS011;75728;51.856;6.314;2024-03-23T04:32:18;1.70;;;0.50;;
42346;SDS011;75728;51.856;6.314;2024-03-23T04:34:44;2.17;;;0.57;;
42346;SDS011;75728;51.856;6.314;2024-03-23T04:37:10;0.88;;;0.40;;
42346;SDS011;75728;51.856;6.314;2024-03-23T04:39:36;1.67;;;0.57;;
42346;SDS011;75728;51.856;6.314;2024-03-23T04:42:02;0.85;;;0.40;;
42346;SDS011;75728;51.856;6.314;2024-03-23T04:44:28;0.98;;;0.50;;
42346;SDS011;75728;51.856;6.314;2024-03-23T04:46:54;1.85;;;0.40;;
42346;SDS011;75728;51.856;6.314;2024-03-23T04:49:20;1.83;;;0.50;;
42346;SDS011;75728;51.856;6.314;2024-03-23T04:51:45;0.60;;;0.30;;
42346;SDS011;75728;51.856;6.314;2024-03-23T04:54:11;0.38;;;0.20;;
42346;SDS011;75728;51.856;6.314;2024-03-23T04:56:37;0.88;;;0.40;;
42346;SDS011;75728;51.856;6.314;2024-03-23T04:59:03;1.40;;;0.50;;
42346;SDS011;75728;51.856;6.314;2024-03-23T05:01:30;1.38;;;0.57;;
42346;SDS011;75728;51.856;6.314;2024-03-23T05:03:56;1.75;;;0.70;;
42346;SDS011;75728;51.856;6.314;2024-03-23T05:06:22;1.65;;;0.60;;
42346;SDS011;75728;51.856;6.314;2024-03-23T05:08:49;1.20;;;0.40;;
42346;SDS011;75728;51.856;6.314;2024-03-23T05:11:14;1.15;;;0.57;;
42346;SDS011;75728;51.856;6.314;2024-03-23T05:13:40;0.98;;;0.45;;
42346;SDS011;75728;51.856;6.314;2024-03-23T05:16:06;1.27;;;0.50;;
42346;SDS011;75728;51.856;6.314;2024-03-23T05:18:32;0.90;;;0.40;;
42346;SDS011;75728;51.856;6.314;2024-03-23T05:20:58;2.45;;;0.70;;
42346;SDS011;75728;51.856;6.314;2024-03-23T05:23:24;2.17;;;0.40;;
42346;SDS011;75728;51.856;6.314;2024-03-23T05:25:50;1.27;;;0.52;;
42346;SDS011;75728;51.856;6.314;2024-03-23T05:28:19;1.42;;;0.60;;
42346;SDS011;75728;51.856;6.314;2024-03-23T05:30:54;1.15;;;0.57;;
42346;SDS011;75728;51.856;6.314;2024-03-23T05:33:21;1.50;;;0.40;;
42346;SDS011;75728;51.856;6.314;2024-03-23T05:35:55;0.82;;;0.32;;
42346;SDS011;75728;51.856;6.314;2024-03-23T05:38:22;0.60;;;0.40;;
42346;SDS011;75728;51.856;6.314;2024-03-23T05:40:57;1.08;;;0.40;;
42346;SDS011;75728;51.856;6.314;2024-03-23T05:43:24;1.60;;;0.43;;
42346;SDS011;75728;51.856;6.314;2024-03-23T05:45:54;1.38;;;0.52;;
42346;SDS011;75728;51.856;6.314;2024-03-23T05:48:23;0.83;;;0.30;;
42346;SDS011;75728;51.856;6.314;2024-03-23T05:50:50;0.60;;;0.30;;
42346;SDS011;75728;51.856;6.314;2024-03-23T05:53:16;0.98;;;0.40;;
42346;SDS011;75728;51.856;6.314;2024-03-23T05:55:43;1.23;;;0.60;;
42346;SDS011;75728;51.856;6.314;2024-03-23T05:58:08;0.85;;;0.30;;
42346;SDS011;75728;51.856;6.314;2024-03-23T06:00:35;1.08;;;0.30;;
42346;SDS011;75728;51.856;6.314;2024-03-23T06:03:00;1.45;;;0.50;;
42346;SDS011;75728;51.856;6.314;2024-03-23T06:05:26;1.15;;;0.40;;
42346;SDS011;75728;51.856;6.314;2024-03-23T06:07:52;1.40;;;0.50;;
42346;SDS011;75728;51.856;6.314;2024-03-23T06:10:18;1.63;;;0.40;;
42346;SDS011;75728;51.856;6.314;2024-03-23T06:12:43;0.70;;;0.30;;
42346;SDS011;75728;51.856;6.314;2024-03-23T06:15:11;0.80;;;0.30;;
42346;SDS011;75728;51.856;6.314;2024-03-23T06:17:37;0.80;;;0.40;;
42346;SDS011;75728;51.856;6.314;2024-03-23T06:20:03;1.13;;;0.40;;
42346;SDS011;75728;51.856;6.314;2024-03-23T06:22:31;1.50;;;0.40;;
42346;SDS011;75728;51.856;6.314;2024-03-23T06:24:56;0.73;;;0.30;;
42346;SDS011;75728;51.856;6.314;2024-03-23T06:27:22;0.88;;;0.38;;
42346;SDS011;75728;51.856;6.314;2024-03-23T06:29:48;1.13;;;0.32;;
42346;SDS011;75728;51.856;6.314;2024-03-23T06:32:13;2.78;;;0.50;;
42346;SDS011;75728;51.856;6.314;2024-03-23T06:34:41;1.05;;;0.40;;
42346;SDS011;75728;51.856;6.314;2024-03-23T06:37:07;1.35;;;0.50;;
42346;SDS011;75728;51.856;6.314;2024-03-23T06:39:34;0.82;;;0.30;;
42346;SDS011;75728;51.856;6.314;2024-03-23T06:42:00;1.20;;;0.30;;
42346;SDS011;75728;51.856;6.314;2024-03-23T06:44:26;0.68;;;0.22;;
42346;SDS011;75728;51.856;6.314;2024-03-23T06:46:51;0.45;;;0.30;;
42346;SDS011;75728;51.856;6.314;2024-03-23T06:49:17;0.70;;;0.22;;
42346;SDS011;75728;51.856;6.314;2024-03-23T06:51:43;1.60;;;0.77;;
42346;SDS011;75728;51.856;6.314;2024-03-23T06:54:10;1.42;;;0.40;;
42346;SDS011;75728;51.856;6.314;2024-03-23T06:56:36;1.35;;;0.35;;
42346;SDS011;75728;51.856;6.314;2024-03-23T06:59:01;1.23;;;0.30;;
42346;SDS011;75728;51.856;6.314;2024-03-23T07:01:27;1.13;;;0.30;;
42346;SDS011;75728;51.856;6.314;2024-03-23T07:03:53;0.77;;;0.40;;
42346;SDS011;75728;51.856;6.314;2024-03-23T07:06:19;0.80;;;0.30;;
42346;SDS011;75728;51.856;6.314;2024-03-23T07:08:45;0.50;;;0.20;;
42346;SDS011;75728;51.856;6.314;2024-03-23T07:11:10;1.38;;;0.55;;
42346;SDS011;75728;51.856;6.314;2024-03-23T07:13:36;0.65;;;0.40;;
42346;SDS011;75728;51.856;6.314;2024-03-23T07:16:02;0.80;;;0.40;;
42346;SDS011;75728;51.856;6.314;2024-03-23T07:18:27;1.05;;;0.30;;
42346;SDS011;75728;51.856;6.314;2024-03-23T07:20:54;1.13;;;0.35;;
42346;SDS011;75728;51.856;6.314;2024-03-23T07:23:23;0.57;;;0.30;;
42346;SDS011;75728;51.856;6.314;2024-03-23T07:26:02;0.90;;;0.40;;
42346;SDS011;75728;51.856;6.314;2024-03-23T07:28:30;1.45;;;0.50;;
42346;SDS011;75728;51.856;6.314;2024-03-23T07:31:03;0.57;;;0.25;;
42346;SDS011;75728;51.856;6.314;2024-03-23T07:33:29;1.52;;;0.60;;
42346;SDS011;75728;51.856;6.314;2024-03-23T07:35:55;0.90;;;0.35;;
42346;SDS011;75728;51.856;6.314;2024-03-23T07:38:21;0.75;;;0.30;;
42346;SDS011;75728;51.856;6.314;2024-03-23T07:40:46;0.75;;;0.30;;
42346;SDS011;75728;51.856;6.314;2024-03-23T07:43:14;1.40;;;0.35;;
42346;SDS011;75728;51.856;6.314;2024-03-23T07:45:40;1.05;;;0.30;;
42346;SDS011;75728;51.856;6.314;2024-03-23T07:48:06;0.80;;;0.40;;
42346;SDS011;75728;51.856;6.314;2024-03-23T07:50:32;1.40;;;0.40;;
42346;SDS011;75728;51.856;6.314;2024-03-23T07:52:57;1.10;;;0.60;;
42346;SDS011;75728;51.856;6.314;2024-03-23T07:55:23;0.95;;;0.30;;
42346;SDS011;75728;51.856;6.314;2024-03-23T07:57:50;0.73;;;0.30;;
42346;SDS011;75728;51.856;6.314;2024-03-23T08:00:16;0.88;;;0.38;;
42346;SDS011;75728;51.856;6.314;2024-03-23T08:02:42;14.50;;;11.70;;
42346;SDS011;75728;51.856;6.314;2024-03-23T08:05:07;9.65;;;6.53;;
42346;SDS011;75728;51.856;6.314;2024-03-23T08:07:33;5.18;;;2.28;;
42346;SDS011;75728;51.856;6.314;2024-03-23T08:09:58;5.30;;;1.73;;
42346;SDS011;75728;51.856;6.314;2024-03-23T08:12:25;9.80;;;2.50;;
42346;SDS011;75728;51.856;6.314;2024-03-23T08:14:50;6.57;;;1.70;;
42346;SDS011;75728;51.856;6.314;2024-03-23T08:17:16;6.07;;;1.98;;
42346;SDS011;75728;51.856;6.314;2024-03-23T08:19:41;8.07;;;2.15;;
42346;SDS011;75728;51.856;6.314;2024-03-23T08:22:07;6.05;;;2.15;;
42346;SDS011;75728;51.856;6.314;2024-03-23T08:24:34;8.77;;;2.55;;
42346;SDS011;75728;51.856;6.314;2024-03-23T08:26:59;6.50;;;2.35;;
42346;SDS011;75728;51.856;6.314;2024-03-23T08:29:25;7.57;;;2.10;;
42346;SDS011;75728;51.856;6.314;2024-03-23T08:31:51;7.55;;;2.15;;
42346;SDS011;75728;51.856;6.314;2024-03-23T08:34:17;9.27;;;2.35;;
42346;SDS011;75728;51.856;6.314;2024-03-23T08:36:42;9.73;;;2.20;;
42346;SDS011;75728;51.856;6.314;2024-03-23T08:39:08;8.43;;;3.08;;
42346;SDS011;75728;51.856;6.314;2024-03-23T08:41:34;8.13;;;2.25;;
42346;SDS011;75728;51.856;6.314;2024-03-23T08:43:59;7.85;;;2.30;;
42346;SDS011;75728;51.856;6.314;2024-03-23T08:46:25;6.43;;;2.00;;
42346;SDS011;75728;51.856;6.314;2024-03-23T08:48:51;9.05;;;2.15;;
42346;SDS011;75728;51.856;6.314;2024-03-23T08:51:18;6.72;;;1.65;;
42346;SDS011;75728;51.856;6.314;2024-03-23T08:53:44;14.45;;;2.55;;
42346;SDS011;75728;51.856;6.314;2024-03-23T08:56:10;8.15;;;1.75;;
42346;SDS011;75728;51.856;6.314;2024-03-23T08:58:37;9.63;;;1.92;;
42346;SDS011;75728;51.856;6.314;2024-03-23T09:01:07;8.68;;;1.77;;
42346;SDS011;75728;51.856;6.314;2024-03-23T09:03:34;8.25;;;1.75;;
42346;SDS011;75728;51.856;6.314;2024-03-23T09:06:00;7.55;;;2.10;;
42346;SDS011;75728;51.856;6.314;2024-03-23T09:08:26;7.55;;;1.95;;
42346;SDS011;75728;51.856;6.314;2024-03-23T09:10:52;9.32;;;1.98;;
42346;SDS011;75728;51.856;6.314;2024-03-23T09:13:18;7.15;;;1.98;;
42346;SDS011;75728;51.856;6.314;2024-03-23T09:15:48;31.88;;;22.13;;
42346;SDS011;75728;51.856;6.314;2024-03-23T09:18:21;28.73;;;20.83;;
42346;SDS011;75728;51.856;6.314;2024-03-23T09:20:47;19.15;;;14.23;;
42346;SDS011;75728;51.856;6.314;2024-03-23T09:23:12;8.88;;;2.63;;
42346;SDS011;75728;51.856;6.314;2024-03-23T09:25:38;4.78;;;1.55;;
42346;SDS011;75728;51.856;6.314;2024-03-23T09:28:04;7.65;;;1.55;;
42346;SDS011;75728;51.856;6.314;2024-03-23T09:30:32;6.93;;;1.35;;
42346;SDS011;75728;51.856;6.314;2024-03-23T09:32:58;7.13;;;1.83;;
42346;SDS011;75728;51.856;6.314;2024-03-23T09:35:24;6.15;;;1.65;;
42346;SDS011;75728;51.856;6.314;2024-03-23T09:37:50;3.92;;;1.25;;
42346;SDS011;75728;51.856;6.314;2024-03-23T09:40:15;6.20;;;1.42;;
42346;SDS011;75728;51.856;6.314;2024-03-23T09:42:41;6.13;;;1.58;;
42346;SDS011;75728;51.856;6.314;2024-03-23T09:45:16;7.57;;;1.65;;
42346;SDS011;75728;51.856;6.314;2024-03-23T09:47:44;5.15;;;1.55;;
42346;SDS011;75728;51.856;6.314;2024-03-23T09:50:12;6.32;;;1.75;;
42346;SDS011;75728;51.856;6.314;2024-03-23T09:52:38;7.03;;;1.45;;
42346;SDS011;75728;51.856;6.314;2024-03-23T09:55:04;7.65;;;1.95;;
42346;SDS011;75728;51.856;6.314;2024-03-23T09:57:29;4.28;;;1.20;;
42346;SDS011;75728;51.856;6.314;2024-03-23T09:59:55;5.95;;;1.50;;
42346;SDS011;75728;51.856;6.314;2024-03-23T10:02:22;6.38;;;1.60;;
42346;SDS011;75728;51.856;6.314;2024-03-23T10:04:49;4.28;;;1.40;;
42346;SDS011;75728;51.856;6.314;2024-03-23T10:07:15;4.97;;;1.20;;
42346;SDS011;75728;51.856;6.314;2024-03-23T10:09:44;5.13;;;1.30;;
42346;SDS011;75728;51.856;6.314;2024-03-23T10:12:13;4.25;;;1.42;;
42346;SDS011;75728;51.856;6.314;2024-03-23T10:14:41;8.02;;;1.33;;
42346;SDS011;75728;51.856;6.314;2024-03-23T10:17:11;5.03;;;1.27;;
42346;SDS011;75728;51.856;6.314;2024-03-23T10:19:41;5.07;;;1.35;;
42346;SDS011;75728;51.856;6.314;2024-03-23T10:22:08;4.40;;;1.30;;
42346;SDS011;75728;51.856;6.314;2024-03-23T10:24:34;3.75;;;1.10;;
42346;SDS011;75728;51.856;6.314;2024-03-23T10:27:00;5.60;;;1.35;;
42346;SDS011;75728;51.856;6.314;2024-03-23T10:29:25;4.13;;;1.08;;
42346;SDS011;75728;51.856;6.314;2024-03-23T10:31:53;5.78;;;1.08;;
42346;SDS011;75728;51.856;6.314;2024-03-23T10:34:26;8.05;;;1.88;;
42346;SDS011;75728;51.856;6.314;2024-03-23T10:36:55;3.45;;;0.73;;
42346;SDS011;75728;51.856;6.314;2024-03-23T10:39:23;2.30;;;0.88;;
42346;SDS011;75728;51.856;6.314;2024-03-23T10:41:52;3.50;;;0.82;;
42346;SDS011;75728;51.856;6.314;2024-03-23T10:44:21;3.65;;;0.93;;
42346;SDS011;75728;51.856;6.314;2024-03-23T10:46:50;3.80;;;0.93;;
42346;SDS011;75728;51.856;6.314;2024-03-23T10:49:15;4.38;;;1.02;;
42346;SDS011;75728;51.856;6.314;2024-03-23T10:51:44;5.82;;;1.02;;
42346;SDS011;75728;51.856;6.314;2024-03-23T10:54:10;6.25;;;1.15;;
42346;SDS011;75728;51.856;6.314;2024-03-23T10:56:57;3.28;;;1.10;;
42346;SDS011;75728;51.856;6.314;2024-03-23T10:59:38;7.90;;;1.38;;
42346;SDS011;75728;51.856;6.314;2024-03-23T11:02:04;7.18;;;1.55;;
42346;SDS011;75728;51.856;6.314;2024-03-23T11:04:33;5.10;;;1.15;;
42346;SDS011;75728;51.856;6.314;2024-03-23T11:07:02;3.13;;;0.80;;
42346;SDS011;75728;51.856;6.314;2024-03-23T11:14:48;2.30;;;0.73;;
42346;SDS011;75728;51.856;6.314;2024-03-23T11:17:21;4.43;;;0.77;;
42346;SDS011;75728;51.856;6.314;2024-03-23T11:25:15;4.60;;;1.40;;
42346;SDS011;75728;51.856;6.314;2024-03-23T11:27:42;4.78;;;1.30;;
42346;SDS011;75728;51.856;6.314;2024-03-23T11:30:24;7.55;;;1.60;;
42346;SDS011;75728;51.856;6.314;2024-03-23T11:32:51;7.70;;;1.30;;
42346;SDS011;75728;51.856;6.314;2024-03-23T11:35:28;6.15;;;1.35;;
42346;SDS011;75728;51.856;6.314;2024-03-23T11:40:38;7.05;;;1.52;;
42346;SDS011;75728;51.856;6.314;2024-03-23T11:43:05;6.43;;;1.23;;
42346;SDS011;75728;51.856;6.314;2024-03-23T11:45:43;4.97;;;1.23;;
42346;SDS011;75728;51.856;6.314;2024-03-23T11:48:11;5.53;;;1.52;;
42346;SDS011;75728;51.856;6.314;2024-03-23T11:50:43;5.72;;;1.25;;
42346;SDS011;75728;51.856;6.314;2024-03-23T11:58:24;6.15;;;1.45;;
42346;SDS011;75728;51.856;6.314;2024-03-23T12:01:01;7.53;;;1.60;;
42346;SDS011;75728;51.856;6.314;2024-03-23T12:03:28;5.70;;;1.40;;
42346;SDS011;75728;51.856;6.314;2024-03-23T12:05:58;4.85;;;1.02;;
42346;SDS011;75728;51.856;6.314;2024-03-23T12:11:13;4.47;;;1.08;;
42346;SDS011;75728;51.856;6.314;2024-03-23T12:13:40;4.93;;;1.23;;
42346;SDS011;75728;51.856;6.314;2024-03-23T12:18:42;4.38;;;1.10;;
42346;SDS011;75728;51.856;6.314;2024-03-23T12:21:08;5.50;;;0.80;;
42346;SDS011;75728;51.856;6.314;2024-03-23T12:23:34;2.35;;;0.80;;
42346;SDS011;75728;51.856;6.314;2024-03-23T12:26:00;4.05;;;0.77;;
42346;SDS011;75728;51.856;6.314;2024-03-23T12:28:27;7.78;;;0.95;;
42346;SDS011;75728;51.856;6.314;2024-03-23T12:30:53;3.38;;;0.75;;
42346;SDS011;75728;51.856;6.314;2024-03-23T12:33:19;3.33;;;0.90;;
42346;SDS011;75728;51.856;6.314;2024-03-23T12:35:51;3.28;;;0.88;;
42346;SDS011;75728;51.856;6.314;2024-03-23T12:38:16;4.82;;;0.90;;
42346;SDS011;75728;51.856;6.314;2024-03-23T12:40:46;5.72;;;0.95;;
42346;SDS011;75728;51.856;6.314;2024-03-23T12:43:15;3.95;;;1.02;;
42346;SDS011;75728;51.856;6.314;2024-03-23T12:45:41;5.40;;;1.13;;
42346;SDS011;75728;51.856;6.314;2024-03-23T12:48:12;3.97;;;0.98;;
42346;SDS011;75728;51.856;6.314;2024-03-23T12:50:37;4.75;;;0.80;;
42346;SDS011;75728;51.856;6.314;2024-03-23T12:53:03;3.45;;;0.80;;
42346;SDS011;75728;51.856;6.314;2024-03-23T12:55:29;2.50;;;0.70;;
42346;SDS011;75728;51.856;6.314;2024-03-23T12:57:54;4.05;;;1.15;;
42346;SDS011;75728;51.856;6.314;2024-03-23T13:00:20;3.53;;;1.00;;
42346;SDS011;75728;51.856;6.314;2024-03-23T13:02:45;4.28;;;0.77;;
42346;SDS011;75728;51.856;6.314;2024-03-23T13:05:11;7.38;;;1.35;;
42346;SDS011;75728;51.856;6.314;2024-03-23T13:07:37;4.93;;;1.02;;
42346;SDS011;75728;51.856;6.314;2024-03-23T13:10:03;4.00;;;1.00;;
42346;SDS011;75728;51.856;6.314;2024-03-23T13:12:31;5.30;;;1.27;;
42346;SDS011;75728;51.856;6.314;2024-03-23T13:14:58;6.60;;;1.00;;
42346;SDS011;75728;51.856;6.314;2024-03-23T13:17:24;4.40;;;1.00;;
42346;SDS011;75728;51.856;6.314;2024-03-23T13:19:51;5.18;;;1.00;;
42346;SDS011;75728;51.856;6.314;2024-03-23T13:22:17;5.47;;;1.27;;
42346;SDS011;75728;51.856;6.314;2024-03-23T13:24:43;4.38;;;1.30;;
42346;SDS011;75728;51.856;6.314;2024-03-23T13:27:09;4.35;;;1.13;;
42346;SDS011;75728;51.856;6.314;2024-03-23T13:29:35;7.95;;;1.50;;
42346;SDS011;75728;51.856;6.314;2024-03-23T13:32:02;4.95;;;1.08;;
42346;SDS011;75728;51.856;6.314;2024-03-23T13:34:28;5.43;;;1.00;;
42346;SDS011;75728;51.856;6.314;2024-03-23T13:36:54;5.28;;;1.27;;
42346;SDS011;75728;51.856;6.314;2024-03-23T13:39:23;5.90;;;1.38;;
42346;SDS011;75728;51.856;6.314;2024-03-23T13:41:50;5.38;;;1.15;;
42346;SDS011;75728;51.856;6.314;2024-03-23T13:44:16;4.28;;;0.85;;
42346;SDS011;75728;51.856;6.314;2024-03-23T13:46:41;4.53;;;1.15;;
42346;SDS011;75728;51.856;6.314;2024-03-23T13:49:08;5.40;;;1.25;;
42346;SDS011;75728;51.856;6.314;2024-03-23T13:51:51;8.90;;;1.30;;
42346;SDS011;75728;51.856;6.314;2024-03-23T13:54:17;4.40;;;1.17;;
42346;SDS011;75728;51.856;6.314;2024-03-23T13:56:43;4.00;;;1.10;;
42346;SDS011;75728;51.856;6.314;2024-03-23T13:59:09;4.22;;;1.00;;
42346;SDS011;75728;51.856;6.314;2024-03-23T14:01:35;5.25;;;1.13;;
42346;SDS011;75728;51.856;6.314;2024-03-23T14:04:01;4.45;;;0.75;;
42346;SDS011;75728;51.856;6.314;2024-03-23T14:06:26;4.22;;;1.00;;
42346;SDS011;75728;51.856;6.314;2024-03-23T14:08:52;4.90;;;0.82;;
42346;SDS011;75728;51.856;6.314;2024-03-23T14:11:18;3.00;;;0.68;;
42346;SDS011;75728;51.856;6.314;2024-03-23T14:13:43;4.25;;;0.77;;
42346;SDS011;75728;51.856;6.314;2024-03-23T14:16:09;5.40;;;0.88;;
42346;SDS011;75728;51.856;6.314;2024-03-23T14:18:35;2.65;;;0.80;;
42346;SDS011;75728;51.856;6.314;2024-03-23T14:21:00;3.85;;;0.82;;
42346;SDS011;75728;51.856;6.314;2024-03-23T14:23:27;4.72;;;1.02;;
42346;SDS011;75728;51.856;6.314;2024-03-23T14:25:59;2.88;;;0.63;;
42346;SDS011;75728;51.856;6.314;2024-03-23T14:28:25;6.18;;;1.45;;
42346;SDS011;75728;51.856;6.314;2024-03-23T14:30:51;5.30;;;0.98;;
42346;SDS011;75728;51.856;6.314;2024-03-23T14:33:20;3.40;;;0.98;;
42346;SDS011;75728;51.856;6.314;2024-03-23T14:35:52;4.15;;;0.93;;
42346;SDS011;75728;51.856;6.314;2024-03-23T14:38:19;3.58;;;0.90;;
42346;SDS011;75728;51.856;6.314;2024-03-23T14:40:45;3.67;;;0.75;;
42346;SDS011;75728;51.856;6.314;2024-03-23T14:43:11;3.03;;;0.80;;
42346;SDS011;75728;51.856;6.314;2024-03-23T14:45:36;4.00;;;1.05;;
42346;SDS011;75728;51.856;6.314;2024-03-23T14:48:02;5.07;;;1.17;;
42346;SDS011;75728;51.856;6.314;2024-03-23T14:50:28;4.57;;;0.95;;
42346;SDS011;75728;51.856;6.314;2024-03-23T14:52:54;4.07;;;0.80;;
42346;SDS011;75728;51.856;6.314;2024-03-23T14:55:19;4.00;;;0.90;;
42346;SDS011;75728;51.856;6.314;2024-03-23T14:57:45;4.05;;;1.15;;
42346;SDS011;75728;51.856;6.314;2024-03-23T15:00:11;5.93;;;1.00;;
42346;SDS011;75728;51.856;6.314;2024-03-23T15:02:37;4.55;;;0.90;;
42346;SDS011;75728;51.856;6.314;2024-03-23T15:05:03;5.07;;;1.13;;
42346;SDS011;75728;51.856;6.314;2024-03-23T15:07:32;4.85;;;1.10;;
42346;SDS011;75728;51.856;6.314;2024-03-23T15:09:58;4.45;;;1.02;;
42346;SDS011;75728;51.856;6.314;2024-03-23T15:12:24;6.20;;;1.60;;
42346;SDS011;75728;51.856;6.314;2024-03-23T15:14:49;2.97;;;1.20;;
42346;SDS011;75728;51.856;6.314;2024-03-23T15:17:15;4.20;;;1.58;;
42346;SDS011;75728;51.856;6.314;2024-03-23T15:19:40;2.78;;;0.90;;
42346;SDS011;75728;51.856;6.314;2024-03-23T15:22:07;1.58;;;0.60;;
42346;SDS011;75728;51.856;6.314;2024-03-23T15:24:33;2.03;;;0.50;;
42346;SDS011;75728;51.856;6.314;2024-03-23T15:27:00;2.13;;;0.80;;
42346;SDS011;75728;51.856;6.314;2024-03-23T15:29:26;3.58;;;0.85;;
42346;SDS011;75728;51.856;6.314;2024-03-23T15:31:52;3.65;;;0.85;;
42346;SDS011;75728;51.856;6.314;2024-03-23T15:34:18;5.82;;;1.02;;
42346;SDS011;75728;51.856;6.314;2024-03-23T15:36:46;3.78;;;1.00;;
42346;SDS011;75728;51.856;6.314;2024-03-23T15:39:16;4.75;;;1.00;;
42346;SDS011;75728;51.856;6.314;2024-03-23T15:41:43;2.83;;;0.80;;
42346;SDS011;75728;51.856;6.314;2024-03-23T15:44:13;4.80;;;0.85;;
42346;SDS011;75728;51.856;6.314;2024-03-23T15:46:39;3.65;;;0.70;;
42346;SDS011;75728;51.856;6.314;2024-03-23T15:49:04;4.78;;;1.00;;
42346;SDS011;75728;51.856;6.314;2024-03-23T15:51:31;4.55;;;1.00;;
42346;SDS011;75728;51.856;6.314;2024-03-23T15:54:02;3.75;;;1.02;;
42346;SDS011;75728;51.856;6.314;2024-03-23T15:56:31;4.72;;;1.23;;
42346;SDS011;75728;51.856;6.314;2024-03-23T15:58:57;4.95;;;1.27;;
42346;SDS011;75728;51.856;6.314;2024-03-23T16:01:30;4.85;;;1.00;;
42346;SDS011;75728;51.856;6.314;2024-03-23T16:03:58;3.08;;;1.05;;